Time;durP1;ratioP1;P1;durP2;ratioP2;P2;SDS_P1;SDS_P2;PMS_P1;PMS_P2;Temp;Humidity;BMP_temperature;BMP_pressure;BME280_temperature;BME280_humidity;BME280_pressure;Samples;Min_cycle;Max_cycle;Signal;HPM_P1;HPM_P2
2023/03/11 00:01:29;;;;;;;12.07;6.25;;;;;;;;;;5058001;28;20102;-74
2023/03/11 00:03:55;;;;;;;12.02;6.95;;;;;;;;;;5073541;28;20082;-75
2023/03/11 00:06:21;;;;;;;7.93;5.82;;;;;;;;;;5085163;28;20044;-75
2023/03/11 00:08:47;;;;;;;6.13;4.88;;;;;;;;;;5073426;28;20510;-75
2023/03/11 00:11:13;;;;;;;7.57;5.68;;;;;;;;;;5092004;28;20097;-76
2023/03/11 00:13:40;;;;;;;10.82;7.10;;;;;;;;;;5091286;28;20032;-75
2023/03/11 00:16:06;;;;;;;8.35;6.65;;;;;;;;;;5087126;28;20645;-77
2023/03/11 00:18:32;;;;;;;11.05;6.57;;;;;;;;;;5089307;28;20055;-77
2023/03/11 00:20:58;;;;;;;13.95;7.25;;;;;;;;;;5073379;28;20032;-76
2023/03/11 00:23:25;;;;;;;9.68;6.50;;;;;;;;;;5091176;28;20510;-76
2023/03/11 00:25:51;;;;;;;16.58;9.27;;;;;;;;;;5072827;28;20123;-76
2023/03/11 00:28:17;;;;;;;14.57;7.88;;;;;;;;;;5072957;28;20067;-75
2023/03/11 00:30:44;;;;;;;10.38;7.53;;;;;;;;;;5072584;28;21513;-74
2023/03/11 00:33:11;;;;;;;9.82;4.80;;;;;;;;;;5088329;28;20039;-75
2023/03/11 00:35:40;;;;;;;26.70;9.88;;;;;;;;;;5072560;28;20034;-73
2023/03/11 00:38:07;;;;;;;6.72;4.80;;;;;;;;;;5091692;28;20512;-74
2023/03/11 00:40:34;;;;;;;15.25;9.60;;;;;;;;;;5092191;28;20036;-76
2023/03/11 00:43:01;;;;;;;10.45;8.32;;;;;;;;;;5091976;28;20085;-75
2023/03/11 00:45:27;;;;;;;19.23;10.35;;;;;;;;;;5091955;28;20055;-75
2023/03/11 00:47:53;;;;;;;9.77;7.60;;;;;;;;;;5056568;28;20035;-75
2023/03/11 00:50:23;;;;;;;24.75;11.57;;;;;;;;;;5073035;28;20036;-74
2023/03/11 00:52:49;;;;;;;19.95;12.27;;;;;;;;;;5092194;28;20071;-74
2023/03/11 00:55:17;;;;;;;22.58;13.55;;;;;;;;;;5092136;28;20078;-75
2023/03/11 00:57:43;;;;;;;26.77;13.85;;;;;;;;;;5072987;28;20035;-74
2023/03/11 01:00:14;;;;;;;12.88;8.88;;;;;;;;;;5057024;28;20043;-74
2023/03/11 01:02:40;;;;;;;14.33;7.77;;;;;;;;;;5073577;28;20047;-74
2023/03/11 01:05:06;;;;;;;15.98;11.10;;;;;;;;;;5074059;28;20270;-74
2023/03/11 01:07:33;;;;;;;20.75;9.50;;;;;;;;;;5073974;28;20036;-74
2023/03/11 01:09:59;;;;;;;13.88;9.32;;;;;;;;;;5091717;28;20038;-75
2023/03/11 01:12:28;;;;;;;23.88;13.50;;;;;;;;;;5091704;28;20047;-75
2023/03/11 01:14:54;;;;;;;17.65;7.78;;;;;;;;;;5091743;28;20127;-75
2023/03/11 01:17:21;;;;;;;16.38;12.10;;;;;;;;;;5072996;28;20408;-75
2023/03/11 01:19:47;;;;;;;26.85;14.88;;;;;;;;;;5090656;28;20083;-75
2023/03/11 01:22:14;;;;;;;29.42;15.77;;;;;;;;;;5073469;28;20071;-75
2023/03/11 01:24:40;;;;;;;21.40;12.68;;;;;;;;;;5091773;28;20384;-74
2023/03/11 01:27:06;;;;;;;22.25;12.63;;;;;;;;;;5091045;28;20055;-75
2023/03/11 01:29:32;;;;;;;20.40;12.25;;;;;;;;;;5073103;28;20511;-75
2023/03/11 01:31:58;;;;;;;28.50;14.23;;;;;;;;;;5072877;28;20112;-75
2023/03/11 01:34:25;;;;;;;21.17;12.38;;;;;;;;;;5055879;28;20040;-75
2023/03/11 01:36:51;;;;;;;23.70;13.55;;;;;;;;;;5080867;28;20575;-75
2023/03/11 01:39:18;;;;;;;27.08;14.32;;;;;;;;;;5052944;28;20029;-74
2023/03/11 01:41:44;;;;;;;29.75;14.38;;;;;;;;;;5073975;28;20047;-74
2023/03/11 01:44:11;;;;;;;18.70;12.68;;;;;;;;;;5072750;28;20035;-74
2023/03/11 01:46:53;;;;;;;21.05;12.93;;;;;;;;;;5090871;28;20423;-74
2023/03/11 01:49:25;;;;;;;19.92;10.40;;;;;;;;;;5069707;28;20523;-74
2023/03/11 01:51:59;;;;;;;26.08;13.57;;;;;;;;;;5071093;28;20044;-74
2023/03/11 01:54:32;;;;;;;11.13;7.32;;;;;;;;;;5036108;28;20463;-73
2023/03/11 01:56:58;;;;;;;22.98;13.18;;;;;;;;;;5035874;28;20440;-72
2023/03/11 01:59:28;;;;;;;33.58;9.00;;;;;;;;;;5070575;28;20067;-74
2023/03/11 02:01:55;;;;;;;23.67;12.10;;;;;;;;;;5038007;28;20080;-75
2023/03/11 02:04:21;;;;;;;13.75;8.65;;;;;;;;;;5056139;28;20036;-75
2023/03/11 02:06:47;;;;;;;11.15;8.88;;;;;;;;;;5072631;28;20109;-75
2023/03/11 02:09:13;;;;;;;11.10;9.35;;;;;;;;;;5091062;28;20129;-74
2023/03/11 02:11:42;;;;;;;15.95;11.82;;;;;;;;;;5090362;28;20138;-74
2023/03/11 02:14:08;;;;;;;16.15;10.95;;;;;;;;;;5056484;28;20100;-75
2023/03/11 02:16:34;;;;;;;11.65;6.00;;;;;;;;;;5072332;28;20036;-74
2023/03/11 02:19:04;;;;;;;18.52;9.43;;;;;;;;;;5071832;28;20127;-74
2023/03/11 02:21:30;;;;;;;9.75;6.82;;;;;;;;;;5055366;28;20063;-75
2023/03/11 02:24:03;;;;;;;24.75;10.88;;;;;;;;;;5071948;28;20584;-75
2023/03/11 02:26:40;;;;;;;11.35;8.30;;;;;;;;;;5090007;28;20055;-75
2023/03/11 02:29:06;;;;;;;14.73;8.75;;;;;;;;;;5090243;28;20036;-75
2023/03/11 02:31:32;;;;;;;19.60;11.32;;;;;;;;;;5057025;28;20061;-74
2023/03/11 02:34:00;;;;;;;6.03;5.53;;;;;;;;;;5045936;28;20036;-74
2023/03/11 02:36:31;;;;;;;20.45;11.80;;;;;;;;;;5055563;28;20062;-73
2023/03/11 02:38:57;;;;;;;13.93;7.50;;;;;;;;;;5090443;28;20530;-76
2023/03/11 02:41:23;;;;;;;8.45;7.50;;;;;;;;;;5071982;28;20115;-75
2023/03/11 02:43:50;;;;;;;7.85;7.05;;;;;;;;;;5055474;28;20123;-74
2023/03/11 02:46:16;;;;;;;11.45;8.85;;;;;;;;;;5071627;28;20500;-74
2023/03/11 02:48:43;;;;;;;13.30;9.00;;;;;;;;;;5071563;28;20046;-75
2023/03/11 02:51:10;;;;;;;17.95;11.02;;;;;;;;;;5071519;28;20032;-74
2023/03/11 02:53:38;;;;;;;13.95;11.00;;;;;;;;;;5089682;28;20035;-75
2023/03/11 02:56:05;;;;;;;17.65;8.57;;;;;;;;;;5071628;28;20040;-75
2023/03/11 02:58:32;;;;;;;8.07;7.03;;;;;;;;;;5055029;28;20063;-75
2023/03/11 03:00:58;;;;;;;15.13;9.13;;;;;;;;;;5089420;28;20497;-73
2023/03/11 03:03:24;;;;;;;12.57;9.15;;;;;;;;;;5071543;28;20182;-74
2023/03/11 03:05:50;;;;;;;9.35;7.72;;;;;;;;;;5071500;28;20032;-74
2023/03/11 03:08:17;;;;;;;9.32;7.82;;;;;;;;;;5071710;28;20118;-75
2023/03/11 03:10:43;;;;;;;8.65;7.00;;;;;;;;;;5071633;28;20057;-74
2023/03/11 03:13:09;;;;;;;11.50;9.93;;;;;;;;;;5089769;28;20048;-76
2023/03/11 03:15:35;;;;;;;8.57;6.60;;;;;;;;;;5090160;28;20040;-76
2023/03/11 03:18:01;;;;;;;9.85;6.93;;;;;;;;;;5089787;28;20039;-74
2023/03/11 03:20:28;;;;;;;18.52;13.15;;;;;;;;;;5089565;28;20135;-75
2023/03/11 03:22:57;;;;;;;11.63;9.95;;;;;;;;;;5087821;28;20030;-75
2023/03/11 03:25:27;;;;;;;14.30;8.13;;;;;;;;;;5089788;28;20062;-75
2023/03/11 03:27:55;;;;;;;9.70;7.82;;;;;;;;;;5055087;28;20040;-75
2023/03/11 03:30:22;;;;;;;15.20;10.10;;;;;;;;;;5071968;28;20032;-75
2023/03/11 03:32:49;;;;;;;16.08;10.55;;;;;;;;;;5088381;28;20059;-76
2023/03/11 03:35:16;;;;;;;5.22;4.80;;;;;;;;;;5039680;28;20047;-75
2023/03/11 03:37:58;;;;;;;12.48;10.32;;;;;;;;;;5089143;28;20123;-77
2023/03/11 03:40:24;;;;;;;24.90;13.95;;;;;;;;;;5071616;28;20411;-75
2023/03/11 03:42:51;;;;;;;10.77;8.55;;;;;;;;;;5054915;28;20062;-74
2023/03/11 03:45:18;;;;;;;14.95;11.10;;;;;;;;;;5054435;28;20036;-73
2023/03/11 03:47:45;;;;;;;15.13;10.27;;;;;;;;;;5088076;28;20066;-75
2023/03/11 03:50:11;;;;;;;10.85;9.02;;;;;;;;;;5071588;28;20044;-74
2023/03/11 03:52:40;;;;;;;17.35;13.07;;;;;;;;;;5070942;28;20063;-74
2023/03/11 03:55:06;;;;;;;12.32;8.98;;;;;;;;;;5089231;28;20865;-74
2023/03/11 03:57:32;;;;;;;22.58;12.68;;;;;;;;;;5070856;28;20028;-74
2023/03/11 03:59:58;;;;;;;10.40;8.50;;;;;;;;;;5089145;28;20051;-74
2023/03/11 04:02:24;;;;;;;27.00;15.75;;;;;;;;;;5071954;28;20039;-73
2023/03/11 04:04:51;;;;;;;24.88;12.13;;;;;;;;;;5088769;28;20039;-74
2023/03/11 04:07:17;;;;;;;14.27;10.88;;;;;;;;;;5055665;28;20043;-74
2023/03/11 04:09:43;;;;;;;10.18;7.88;;;;;;;;;;5089828;28;20033;-73
2023/03/11 04:12:12;;;;;;;10.70;9.32;;;;;;;;;;5071723;28;20103;-74
2023/03/11 04:14:38;;;;;;;18.60;11.88;;;;;;;;;;5072018;28;20039;-75
2023/03/11 04:17:04;;;;;;;28.65;17.10;;;;;;;;;;5089970;28;20039;-75
2023/03/11 04:19:31;;;;;;;17.15;11.95;;;;;;;;;;5054658;28;20048;-75
2023/03/11 04:21:57;;;;;;;17.98;10.98;;;;;;;;;;5089660;28;20580;-75
2023/03/11 04:24:25;;;;;;;19.58;10.38;;;;;;;;;;5072770;28;20036;-75
2023/03/11 04:26:52;;;;;;;15.85;11.63;;;;;;;;;;5055142;28;20066;-75
2023/03/11 04:29:19;;;;;;;8.95;8.02;;;;;;;;;;5055808;28;20039;-77
2023/03/11 04:31:49;;;;;;;20.77;13.80;;;;;;;;;;5072259;28;20052;-74
2023/03/11 04:34:15;;;;;;;15.15;12.32;;;;;;;;;;5074094;28;20039;-75
2023/03/11 04:36:41;;;;;;;24.58;17.73;;;;;;;;;;5094376;28;20032;-74
2023/03/11 04:39:09;;;;;;;9.60;8.07;;;;;;;;;;5075291;28;20028;-75
2023/03/11 04:41:43;;;;;;;18.88;11.70;;;;;;;;;;5075238;28;20036;-74
2023/03/11 04:44:14;;;;;;;11.05;9.30;;;;;;;;;;5076138;28;20055;-75
2023/03/11 04:46:39;;;;;;;12.02;9.90;;;;;;;;;;5075601;28;20051;-76
2023/03/11 04:49:07;;;;;;;17.83;12.50;;;;;;;;;;5075868;28;20184;-75
2023/03/11 04:51:34;;;;;;;12.13;8.95;;;;;;;;;;5075069;28;20516;-75
2023/03/11 04:54:00;;;;;;;17.02;11.23;;;;;;;;;;5074098;28;20032;-74
2023/03/11 04:56:28;;;;;;;11.70;10.50;;;;;;;;;;5073711;28;20040;-74
2023/03/11 04:58:54;;;;;;;14.93;12.23;;;;;;;;;;5058827;28;20123;-76
2023/03/11 05:01:22;;;;;;;16.52;11.40;;;;;;;;;;5092606;28;20036;-75
2023/03/11 05:03:49;;;;;;;13.00;10.75;;;;;;;;;;5074727;28;20580;-75
2023/03/11 05:06:16;;;;;;;12.95;10.57;;;;;;;;;;5092501;28;20028;-75
2023/03/11 05:08:42;;;;;;;12.80;10.70;;;;;;;;;;5074869;28;20036;-74
2023/03/11 05:11:08;;;;;;;16.35;10.73;;;;;;;;;;5058246;28;20038;-74
2023/03/11 05:13:34;;;;;;;20.50;14.00;;;;;;;;;;5074429;28;20573;-76
2023/03/11 05:16:01;;;;;;;13.98;12.48;;;;;;;;;;5091575;28;20028;-76
2023/03/11 05:18:27;;;;;;;17.65;14.00;;;;;;;;;;5092245;28;20046;-75
2023/03/11 05:20:53;;;;;;;12.07;10.88;;;;;;;;;;5074432;28;20044;-75
2023/03/11 05:23:22;;;;;;;13.48;11.98;;;;;;;;;;5074115;28;20089;-76
2023/03/11 05:25:48;;;;;;;14.30;11.30;;;;;;;;;;5074102;28;20028;-74
2023/03/11 05:28:15;;;;;;;9.40;8.50;;;;;;;;;;5091203;28;20044;-75
2023/03/11 05:30:49;;;;;;;9.90;7.90;;;;;;;;;;5057121;28;20059;-76
2023/03/11 05:33:16;;;;;;;14.00;9.40;;;;;;;;;;5069002;28;20047;-73
2023/03/11 05:35:42;;;;;;;13.45;11.90;;;;;;;;;;5072025;28;20036;-72
2023/03/11 05:38:08;;;;;;;14.57;10.25;;;;;;;;;;5089204;28;20040;-72
2023/03/11 05:40:35;;;;;;;16.25;10.07;;;;;;;;;;5036998;28;20033;-74
2023/03/11 05:43:01;;;;;;;8.90;8.13;;;;;;;;;;5053498;28;20040;-72
2023/03/11 05:45:30;;;;;;;12.73;10.30;;;;;;;;;;5067177;28;20059;-73
2023/03/11 05:47:59;;;;;;;15.90;12.70;;;;;;;;;;5073029;28;20035;-73
2023/03/11 05:50:25;;;;;;;9.95;8.95;;;;;;;;;;5073103;28;20084;-73
2023/03/11 05:52:52;;;;;;;8.10;7.40;;;;;;;;;;5039412;28;20410;-74
2023/03/11 05:55:20;;;;;;;13.23;10.90;;;;;;;;;;5070042;28;20064;-74
2023/03/11 05:57:49;;;;;;;11.32;7.18;;;;;;;;;;5037485;28;20119;-73
2023/03/11 06:00:15;;;;;;;12.07;9.88;;;;;;;;;;5091487;28;20039;-73
2023/03/11 06:02:46;;;;;;;14.52;9.02;;;;;;;;;;5090226;28;20043;-73
2023/03/11 06:05:16;;;;;;;11.63;7.63;;;;;;;;;;5040563;28;20028;-73
2023/03/11 06:07:44;;;;;;;7.22;6.50;;;;;;;;;;5072088;28;20032;-74
2023/03/11 06:10:10;;;;;;;9.63;6.80;;;;;;;;;;5089270;28;20059;-74
2023/03/11 06:12:38;;;;;;;8.05;7.32;;;;;;;;;;5055011;28;20972;-73
2023/03/11 06:15:24;;;;;;;12.73;10.10;;;;;;;;;;5044846;28;20873;-72
2023/03/11 06:17:52;;;;;;;6.38;5.70;;;;;;;;;;5064089;28;20032;-73
2023/03/11 06:20:19;;;;;;;7.78;6.65;;;;;;;;;;5066833;28;20056;-73
2023/03/11 06:22:47;;;;;;;8.55;7.70;;;;;;;;;;5064869;28;20052;-72
2023/03/11 06:25:13;;;;;;;10.65;8.45;;;;;;;;;;5049838;28;20028;-72
2023/03/11 06:27:41;;;;;;;8.68;7.78;;;;;;;;;;5042882;28;20032;-73
2023/03/11 06:30:09;;;;;;;7.45;6.50;;;;;;;;;;5061993;28;20056;-73
2023/03/11 06:32:45;;;;;;;12.77;9.15;;;;;;;;;;5063702;28;20047;-72
2023/03/11 06:35:11;;;;;;;9.10;8.30;;;;;;;;;;5060520;28;20055;-73
2023/03/11 06:37:38;;;;;;;8.02;6.40;;;;;;;;;;5045062;28;20044;-72
2023/03/11 06:40:06;;;;;;;11.27;9.20;;;;;;;;;;5050771;28;20056;-73
2023/03/11 06:42:33;;;;;;;8.80;7.95;;;;;;;;;;5064053;28;20043;-75
2023/03/11 06:45:00;;;;;;;7.47;5.97;;;;;;;;;;5049119;28;20028;-74
2023/03/11 06:47:27;;;;;;;8.18;7.22;;;;;;;;;;5066025;28;20052;-74
2023/03/11 06:49:54;;;;;;;9.07;6.60;;;;;;;;;;5032700;28;20028;-75
2023/03/11 06:52:20;;;;;;;10.75;8.45;;;;;;;;;;5079841;28;20046;-74
2023/03/11 06:54:49;;;;;;;11.00;9.95;;;;;;;;;;5061832;28;20353;-72
2023/03/11 06:57:16;;;;;;;8.90;6.07;;;;;;;;;;5054182;28;20047;-72
2023/03/11 06:59:43;;;;;;;8.23;7.43;;;;;;;;;;5066366;28;20591;-72
2023/03/11 07:02:11;;;;;;;8.43;7.63;;;;;;;;;;5058079;28;20033;-73
2023/03/11 07:04:37;;;;;;;5.78;5.28;;;;;;;;;;5057983;28;20028;-73
2023/03/11 07:07:03;;;;;;;6.53;5.95;;;;;;;;;;5077323;28;20032;-74
2023/03/11 07:09:30;;;;;;;3.92;3.63;;;;;;;;;;5049704;28;21098;-75
2023/03/11 07:11:56;;;;;;;12.60;8.32;;;;;;;;;;5041841;28;20577;-75
2023/03/11 07:14:28;;;;;;;6.70;6.00;;;;;;;;;;5058726;28;20039;-75
2023/03/11 07:16:56;;;;;;;7.28;6.70;;;;;;;;;;5078394;28;20034;-76
2023/03/11 07:19:42;;;;;;;6.18;5.60;;;;;;;;;;5074853;28;20086;-75
2023/03/11 07:22:09;;;;;;;7.05;6.53;;;;;;;;;;5079455;28;20104;-75
2023/03/11 07:24:34;;;;;;;4.60;4.20;;;;;;;;;;5078346;28;20032;-74
2023/03/11 07:27:01;;;;;;;7.28;6.57;;;;;;;;;;5078804;28;20501;-74
2023/03/11 07:29:27;;;;;;;16.30;6.95;;;;;;;;;;5079660;28;20077;-70
2023/03/11 07:31:53;;;;;;;4.75;4.32;;;;;;;;;;5057476;28;20134;-75
2023/03/11 07:34:22;;;;;;;7.40;6.70;;;;;;;;;;5077258;28;20159;-73
2023/03/11 07:36:48;;;;;;;6.60;5.88;;;;;;;;;;5078020;28;20112;-72
2023/03/11 07:39:15;;;;;;;7.07;6.47;;;;;;;;;;5080726;28;20120;-72
2023/03/11 07:41:41;;;;;;;6.03;5.57;;;;;;;;;;5082888;28;20116;-73
2023/03/11 07:44:07;;;;;;;5.20;4.80;;;;;;;;;;5048622;28;20101;-73
2023/03/11 07:46:33;;;;;;;6.68;5.25;;;;;;;;;;5081852;28;20590;-73
2023/03/11 07:49:00;;;;;;;5.55;5.15;;;;;;;;;;5084650;28;20036;-73
2023/03/11 07:51:27;;;;;;;6.00;5.50;;;;;;;;;;5066066;28;20078;-72
2023/03/11 07:53:54;;;;;;;6.95;5.47;;;;;;;;;;5066583;28;20093;-73
2023/03/11 07:56:21;;;;;;;4.95;4.55;;;;;;;;;;5070712;28;20039;-73
2023/03/11 07:58:47;;;;;;;6.30;5.68;;;;;;;;;;5069195;28;20483;-72
2023/03/11 08:01:17;;;;;;;6.38;5.80;;;;;;;;;;5087293;28;20123;-73
2023/03/11 08:03:43;;;;;;;6.15;5.65;;;;;;;;;;5070370;28;20036;-72
2023/03/11 08:06:13;;;;;;;7.70;6.38;;;;;;;;;;5094891;28;20056;-72
2023/03/11 08:08:39;;;;;;;13.43;5.60;;;;;;;;;;5096656;28;20059;-72
2023/03/11 08:11:06;;;;;;;5.28;4.88;;;;;;;;;;5064350;28;20106;-72
2023/03/11 08:13:32;;;;;;;6.78;6.28;;;;;;;;;;5097638;28;20078;-72
2023/03/11 08:15:57;;;;;;;9.52;8.20;;;;;;;;;;5097995;28;20705;-72
2023/03/11 08:18:24;;;;;;;6.95;6.40;;;;;;;;;;5059398;28;20040;-72
2023/03/11 08:20:50;;;;;;;5.72;5.25;;;;;;;;;;5092695;28;20072;-73
2023/03/11 08:23:16;;;;;;;6.15;5.72;;;;;;;;;;5074311;28;20040;-73
2023/03/11 08:25:41;;;;;;;7.13;6.63;;;;;;;;;;5092719;28;20032;-72
2023/03/11 08:28:08;;;;;;;7.70;7.00;;;;;;;;;;5074254;28;20036;-73
2023/03/11 08:30:34;;;;;;;6.65;6.15;;;;;;;;;;5092603;28;20120;-73
2023/03/11 08:33:00;;;;;;;5.60;5.20;;;;;;;;;;5073911;28;20551;-73
2023/03/11 08:35:25;;;;;;;10.57;4.40;;;;;;;;;;5072802;28;20035;-72
2023/03/11 08:37:52;;;;;;;4.78;4.45;;;;;;;;;;5074338;28;20048;-74
2023/03/11 08:40:18;;;;;;;6.97;6.25;;;;;;;;;;5074028;28;20032;-72
2023/03/11 08:42:44;;;;;;;6.32;5.72;;;;;;;;;;5091959;28;20044;-72
2023/03/11 08:45:10;;;;;;;5.65;5.15;;;;;;;;;;5073895;28;20127;-73
2023/03/11 08:47:36;;;;;;;6.25;5.65;;;;;;;;;;5074054;28;20043;-72
2023/03/11 08:50:07;;;;;;;5.93;5.43;;;;;;;;;;5074166;28;20024;-72
2023/03/11 08:52:33;;;;;;;5.70;5.13;;;;;;;;;;5091929;28;20047;-73
2023/03/11 08:54:59;;;;;;;6.50;6.00;;;;;;;;;;5091922;28;20529;-72
2023/03/11 08:57:25;;;;;;;5.00;4.63;;;;;;;;;;5091700;28;20532;-72
2023/03/11 08:59:51;;;;;;;7.75;7.07;;;;;;;;;;5073742;28;20043;-72
2023/03/11 09:02:17;;;;;;;7.53;6.93;;;;;;;;;;5073362;28;20435;-72
2023/03/11 09:04:43;;;;;;;7.60;6.85;;;;;;;;;;5091623;28;20074;-73
2023/03/11 09:07:10;;;;;;;7.53;6.97;;;;;;;;;;5091171;28;20131;-73
2023/03/11 09:09:36;;;;;;;6.70;6.20;;;;;;;;;;5091613;28;20036;-73
2023/03/11 09:12:01;;;;;;;4.65;4.25;;;;;;;;;;5056338;28;20039;-73
2023/03/11 09:14:27;;;;;;;3.72;3.42;;;;;;;;;;5091555;28;20123;-73
2023/03/11 09:16:54;;;;;;;5.38;4.90;;;;;;;;;;5091450;28;20043;-73
2023/03/11 09:19:20;;;;;;;6.35;5.85;;;;;;;;;;5090798;28;20055;-73
2023/03/11 09:21:46;;;;;;;7.65;6.97;;;;;;;;;;5091330;28;20105;-73
2023/03/11 09:24:12;;;;;;;7.47;6.85;;;;;;;;;;5072927;28;20768;-72
2023/03/11 09:26:41;;;;;;;7.53;6.93;;;;;;;;;;5091320;28;20084;-72
2023/03/11 09:29:07;;;;;;;4.45;4.18;;;;;;;;;;5090840;28;20031;-73
2023/03/11 09:31:33;;;;;;;6.72;6.05;;;;;;;;;;5073322;28;20048;-72
2023/03/11 09:33:59;;;;;;;6.53;5.88;;;;;;;;;;5090937;28;20058;-73
2023/03/11 09:36:25;;;;;;;5.68;5.25;;;;;;;;;;5090951;28;20036;-72
2023/03/11 09:38:51;;;;;;;7.40;6.85;;;;;;;;;;5090917;28;20032;-72
2023/03/11 09:41:17;;;;;;;7.60;6.90;;;;;;;;;;5090720;28;20191;-72
2023/03/11 09:43:50;;;;;;;5.90;5.43;;;;;;;;;;5072304;28;20031;-72
2023/03/11 09:46:32;;;;;;;6.28;5.78;;;;;;;;;;5072513;28;20040;-72
2023/03/11 09:48:58;;;;;;;;;;;;;;;;;;5091317;28;20043;-72
2023/03/11 09:51:27;;;;;;;3.58;3.38;;;;;;;;;;5090396;28;20287;-72
2023/03/11 09:53:54;;;;;;;5.97;5.43;;;;;;;;;;5072550;28;20071;-72
2023/03/11 09:56:20;;;;;;;5.85;4.72;;;;;;;;;;5090510;28;20039;-72
2023/03/11 09:58:47;;;;;;;5.60;5.05;;;;;;;;;;5090589;28;20515;-72
2023/03/11 10:01:20;;;;;;;5.38;4.97;;;;;;;;;;5072391;28;20085;-73
2023/03/11 10:03:45;;;;;;;5.07;4.65;;;;;;;;;;5072184;28;20412;-74
2023/03/11 10:06:16;;;;;;;4.60;4.20;;;;;;;;;;5055296;28;20036;-73
2023/03/11 10:09:09;;;;;;;6.68;6.15;;;;;;;;;;5090406;28;20036;-73
2023/03/11 10:11:48;;;;;;;4.32;4.05;;;;;;;;;;5060274;28;20040;-72
2023/03/11 10:14:32;;;;;;;6.35;5.85;;;;;;;;;;5090277;28;20827;-72
2023/03/11 10:17:01;;;;;;;6.82;5.53;;;;;;;;;;5090178;28;20040;-73
2023/03/11 10:19:46;;;;;;;6.82;6.22;;;;;;;;;;5089714;28;20051;-72
2023/03/11 10:22:15;;;;;;;8.18;7.28;;;;;;;;;;5071953;28;20527;-72
2023/03/11 10:24:44;;;;;;;6.85;5.88;;;;;;;;;;5072210;28;20035;-76
2023/03/11 10:27:15;;;;;;;6.25;4.68;;;;;;;;;;5072961;28;20035;-73
2023/03/11 10:29:41;;;;;;;6.60;6.00;;;;;;;;;;5072684;28;20123;-73
2023/03/11 10:32:18;;;;;;;6.68;5.63;;;;;;;;;;5071853;28;20142;-73
2023/03/11 10:34:44;;;;;;;6.88;6.28;;;;;;;;;;5090809;28;20056;-72
2023/03/11 10:37:14;;;;;;;7.78;6.90;;;;;;;;;;5089708;28;20039;-72
2023/03/11 10:39:40;;;;;;;8.88;7.15;;;;;;;;;;5089968;28;20407;-72
2023/03/11 10:42:12;;;;;;;5.93;5.43;;;;;;;;;;5071753;28;20040;-73
2023/03/11 10:44:39;;;;;;;6.40;5.80;;;;;;;;;;5071501;28;20446;-72
2023/03/11 10:47:06;;;;;;;8.23;6.03;;;;;;;;;;5089504;28;20043;-73
2023/03/11 10:49:32;;;;;;;6.35;5.80;;;;;;;;;;5054883;28;20032;-72
2023/03/11 10:52:00;;;;;;;8.43;7.60;;;;;;;;;;5089682;28;20120;-72
2023/03/11 10:54:27;;;;;;;6.65;5.95;;;;;;;;;;5054535;28;20108;-73
2023/03/11 10:56:54;;;;;;;10.80;9.82;;;;;;;;;;5089543;28;20407;-72
2023/03/11 10:59:25;;;;;;;7.55;6.22;;;;;;;;;;5089360;28;20504;-72
2023/03/11 11:01:55;;;;;;;6.33;5.83;;;;;;;;;;5089624;28;20031;-73
2023/03/11 11:04:28;;;;;;;7.07;6.47;;;;;;;;;;5089315;28;20121;-73
2023/03/11 11:06:54;;;;;;;7.63;6.88;;;;;;;;;;5089571;28;20173;-72
2023/03/11 11:09:21;;;;;;;8.15;7.55;;;;;;;;;;5088928;28;20043;-72
2023/03/11 11:12:09;;;;;;;10.32;9.45;;;;;;;;;;5089247;28;20162;-72
2023/03/11 11:14:49;;;;;;;11.55;9.32;;;;;;;;;;5071617;28;20039;-73
2023/03/11 11:17:16;;;;;;;9.52;7.97;;;;;;;;;;5089199;28;20503;-73
2023/03/11 11:19:43;;;;;;;9.50;8.55;;;;;;;;;;5088898;28;20051;-72
2023/03/11 11:22:09;;;;;;;12.38;7.88;;;;;;;;;;5089289;28;20123;-73
2023/03/11 11:24:35;;;;;;;6.45;5.85;;;;;;;;;;5071175;28;20032;-73
2023/03/11 11:27:15;;;;;;;6.00;5.43;;;;;;;;;;5071178;28;20032;-73
2023/03/11 11:29:41;;;;;;;6.90;6.25;;;;;;;;;;5089296;28;20030;-73
2023/03/11 11:32:36;;;;;;;8.25;7.40;;;;;;;;;;5070779;28;20765;-73
2023/03/11 11:35:06;;;;;;;6.90;5.55;;;;;;;;;;5055644;28;20037;-73
2023/03/11 11:37:33;;;;;;;11.85;10.85;;;;;;;;;;5068415;28;20036;-72
2023/03/11 11:40:12;;;;;;;6.03;5.40;;;;;;;;;;5068806;28;20037;-73
2023/03/11 11:42:38;;;;;;;7.63;7.03;;;;;;;;;;5052112;28;20047;-71
2023/03/11 11:45:09;;;;;;;6.65;6.18;;;;;;;;;;5054769;28;20107;-72
2023/03/11 11:47:36;;;;;;;6.45;5.95;;;;;;;;;;5038318;28;20545;-73
2023/03/11 11:50:06;;;;;;;8.90;8.10;;;;;;;;;;5072985;28;20570;-73
2023/03/11 11:52:34;;;;;;;7.70;7.10;;;;;;;;;;5038175;28;20601;-73
2023/03/11 11:55:04;;;;;;;9.90;8.90;;;;;;;;;;5054979;28;20044;-72
2023/03/11 11:57:30;;;;;;;9.15;8.15;;;;;;;;;;5054429;28;20250;-73
2023/03/11 11:59:56;;;;;;;12.38;10.93;;;;;;;;;;5054662;28;20115;-73
2023/03/11 12:02:28;;;;;;;9.15;8.35;;;;;;;;;;5072174;28;20504;-72
2023/03/11 12:04:57;;;;;;;8.23;7.40;;;;;;;;;;5072418;28;20565;-72
2023/03/11 12:07:38;;;;;;;6.93;6.35;;;;;;;;;;5072036;28;20424;-73
2023/03/11 12:10:10;;;;;;;7.57;6.97;;;;;;;;;;5054494;28;20086;-73
2023/03/11 12:12:41;;;;;;;7.57;6.88;;;;;;;;;;5054043;28;20523;-73
2023/03/11 12:15:10;;;;;;;7.18;6.57;;;;;;;;;;5072312;28;20098;-72
2023/03/11 12:17:37;;;;;;;7.47;6.88;;;;;;;;;;5071833;28;20040;-73
2023/03/11 12:20:08;;;;;;;7.55;6.95;;;;;;;;;;5054206;28;20055;-72
2023/03/11 12:22:54;;;;;;;7.88;7.25;;;;;;;;;;5053917;28;20097;-73
2023/03/11 12:25:27;;;;;;;8.20;7.50;;;;;;;;;;5057581;28;20032;-73
2023/03/11 12:27:57;;;;;;;6.60;6.10;;;;;;;;;;5054136;28;20117;-72
2023/03/11 12:30:26;;;;;;;7.82;7.13;;;;;;;;;;5071569;28;20039;-73
2023/03/11 12:32:53;;;;;;;5.10;4.78;;;;;;;;;;5056201;28;20546;-73
2023/03/11 12:35:29;;;;;;;7.25;6.30;;;;;;;;;;5074168;28;20042;-72
2023/03/11 12:38:15;;;;;;;6.97;6.35;;;;;;;;;;5073988;28;20040;-73
2023/03/11 12:40:41;;;;;;;6.57;5.05;;;;;;;;;;5073610;28;20161;-73
2023/03/11 12:43:23;;;;;;;6.38;5.80;;;;;;;;;;5091932;28;20598;-73
2023/03/11 12:45:50;;;;;;;5.05;4.63;;;;;;;;;;5073999;28;20020;-73
2023/03/11 12:48:28;;;;;;;5.50;5.18;;;;;;;;;;5092066;28;20070;-73
2023/03/11 12:50:55;;;;;;;8.40;7.50;;;;;;;;;;5074076;28;20134;-73
2023/03/11 12:53:28;;;;;;;8.90;6.47;;;;;;;;;;5057099;28;20048;-73
2023/03/11 12:56:04;;;;;;;7.28;6.70;;;;;;;;;;5073091;28;20032;-72
2023/03/11 12:58:30;;;;;;;8.50;7.75;;;;;;;;;;5091501;28;20131;-73
2023/03/11 13:01:11;;;;;;;10.15;9.15;;;;;;;;;;5091719;28;20036;-73
2023/03/11 13:03:44;;;;;;;7.35;6.65;;;;;;;;;;5073668;28;20040;-73
2023/03/11 13:06:10;;;;;;;7.50;6.80;;;;;;;;;;5091614;28;20046;-73
2023/03/11 13:08:36;;;;;;;7.78;7.07;;;;;;;;;;5091278;28;20028;-73
2023/03/11 13:11:03;;;;;;;6.90;6.32;;;;;;;;;;5091753;28;20035;-73
2023/03/11 13:13:31;;;;;;;5.97;5.47;;;;;;;;;;5088012;28;20105;-73
2023/03/11 13:16:18;;;;;;;5.55;5.05;;;;;;;;;;5091459;28;20063;-73
2023/03/11 13:18:44;;;;;;;8.73;7.85;;;;;;;;;;5072575;28;20028;-73
2023/03/11 13:21:25;;;;;;;6.53;5.90;;;;;;;;;;5073585;28;20036;-74
2023/03/11 13:23:51;;;;;;;7.20;6.68;;;;;;;;;;5091467;28;20138;-73
2023/03/11 13:26:20;;;;;;;7.80;7.05;;;;;;;;;;5091065;28;20154;-74
2023/03/11 13:28:52;;;;;;;7.13;6.38;;;;;;;;;;5091024;28;20032;-72
2023/03/11 13:31:37;;;;;;;8.35;7.65;;;;;;;;;;5056214;28;20598;-73
2023/03/11 13:34:10;;;;;;;8.43;7.72;;;;;;;;;;5052700;28;20438;-73
2023/03/11 13:36:38;;;;;;;8.73;7.95;;;;;;;;;;5070553;28;20439;-72
2023/03/11 13:39:10;;;;;;;8.23;7.43;;;;;;;;;;5036376;28;20033;-73
2023/03/11 13:41:40;;;;;;;8.40;7.60;;;;;;;;;;5069527;28;20459;-73
2023/03/11 13:44:13;;;;;;;8.35;7.05;;;;;;;;;;5069410;28;20046;-73
2023/03/11 13:46:40;;;;;;;9.63;7.57;;;;;;;;;;5069345;28;20115;-73
2023/03/11 13:49:22;;;;;;;11.18;8.88;;;;;;;;;;5070722;28;20043;-73
2023/03/11 13:51:49;;;;;;;7.15;6.55;;;;;;;;;;5069291;28;20033;-72
2023/03/11 13:54:18;;;;;;;8.07;7.30;;;;;;;;;;5052811;28;20051;-73
2023/03/11 13:56:57;;;;;;;7.93;7.22;;;;;;;;;;5070553;28;20115;-74
2023/03/11 13:59:25;;;;;;;6.93;6.03;;;;;;;;;;5052458;28;20044;-73
2023/03/11 14:01:53;;;;;;;9.20;8.23;;;;;;;;;;5052773;28;20055;-73
2023/03/11 14:04:29;;;;;;;6.13;5.50;;;;;;;;;;5069385;28;20534;-74
2023/03/11 14:06:54;;;;;;;7.28;6.68;;;;;;;;;;5069043;28;20032;-73
2023/03/11 14:09:25;;;;;;;5.72;5.28;;;;;;;;;;5052546;28;20066;-73
2023/03/11 14:11:55;;;;;;;7.35;6.72;;;;;;;;;;5070074;28;20040;-74
2023/03/11 14:14:42;;;;;;;8.65;7.95;;;;;;;;;;5069840;28;20068;-74
2023/03/11 14:17:12;;;;;;;8.57;7.78;;;;;;;;;;5069904;28;20037;-72
2023/03/11 14:19:38;;;;;;;8.75;7.95;;;;;;;;;;5068039;28;20052;-73
2023/03/11 14:22:06;;;;;;;5.53;5.13;;;;;;;;;;5070031;28;20040;-73
2023/03/11 14:24:31;;;;;;;8.02;7.22;;;;;;;;;;5034927;28;20048;-73
2023/03/11 14:26:58;;;;;;;6.10;5.63;;;;;;;;;;5051806;28;20094;-73
2023/03/11 14:29:45;;;;;;;7.22;6.63;;;;;;;;;;5070448;28;20499;-74
2023/03/11 14:32:24;;;;;;;8.57;7.78;;;;;;;;;;5090008;28;20048;-73
2023/03/11 14:34:50;;;;;;;6.88;6.38;;;;;;;;;;5050609;28;20166;-73
2023/03/11 14:37:22;;;;;;;7.18;6.57;;;;;;;;;;5069593;28;20040;-73
2023/03/11 14:39:48;;;;;;;;;;;;;;;;;;5052199;28;20068;-73
2023/03/11 14:42:20;;;;;;;6.50;5.90;;;;;;;;;;5051868;28;19956;-73
2023/03/11 14:45:12;;;;;;;7.18;6.57;;;;;;;;;;5069263;28;20455;-73